Vendinga, Russia
Current Conditions -  °F | °C
As of 5:00 AM on Sunday 26 Oct 2014 (Local Time) from UUYY Reporting Station
Snow Showers Snow Showers  
Wind Chill: 19°   Ceiling: 2500
Heat Index: 19°   Visibility: 5mi
Dew Point: 16°   Wind: 2mph
Humidity: 86%   Direction: NA
Pressure: 30.39"   Gusts: NA
Location:  63.45°N, 48°E
Report Text: UUYY 260200Z VRB01MPS 8000 -SHSN BKN025CB OVC066 M07/M09 Q1029 TEMPO 2000 SHSN BR 0182//49 RMK QFE763/1017
Loading
Personal Weather Stations






























Interactive Weather Map
Tropical Storm Tracking
New forecast layout! Learn more

10-Day Weather Forecast

Advertisements
Track Severe Weather on mobile